Pagrindinis puslapis
METAR-TAF:

METAR-TAF

Oro uostai :

Darvinas, Australija

platuma: 12-24S, ilguma: 130-52E, Aukštis: 31 m

Dabartinis oras

Ataskaita buvo paskelbta 49 minutes, ne 02:00 UTC
Vėjas 9 kt iš Rytų/Šiaurės Rytų
Temperatūra 31°C
Drėgmė 31%
Slėgis 1016 hPa
Matomumas 10 km arba daugiau
nėra debesų žemiau 1500 m ir nėra kamuolinių lietaus debesų

METAR: YPDN 170200Z 07009KT CAVOK 31/12 Q1016 NOSIG

Laikas: 12:19 (02:49 UTC)

Prognozė

Ataskaita buvo paskelbta 3 valandos ir 36 minutes, ne 23:13 UTC
Prognozė galioja nuo 17 metu 00 UTC su 18 metu 06 UTC
Vėjas 8 kt iš Rytų
Matomumas 10 km arba daugiau
nėra debesų žemiau 1500 m ir nėra kamuolinių lietaus debesų
Nuo 17 metu 0400 UTC
Vėjas 12 kt iš Šiaurės
Matomumas 10 km arba daugiau
nėra debesų žemiau 1500 m ir nėra kamuolinių lietaus debesų
Nuo 17 metu 1100 UTC
Vėjas 3 kt nuo kintamojo kryptimis
Matomumas 10 km arba daugiau
nėra debesų žemiau 1500 m ir nėra kamuolinių lietaus debesų

TAF: YPDN 162313Z 1700/1806 09008KT CAVOK FM170400 01012KT CAVOK FM171100 VRB03KT CAVOK

Orai ataskaitas ir orų prognozės (METAR, TAF).

turimą stotys yra geltonos ir raudonos taškus žemėlapyje.

Perkelti pele per norėdami pamatyti stoties vardą.

Tada spustelėkite, norėdami matyti oro stebėjimo ir prognozės.

Norėdami pakeisti žemėlapį: spustelėkite ant žalios mygtukų su juodo kryžiaus žemyn,; žalią mygtuką su brūkšneliu, jei norite nutolinti; arba žalių rodyklių gretimoms žemėlapius.


METAR-TAF: